Longmont, CO

8:23 PM MST on February 12, 2016 (GMT -0700)
Gunbarrel Green | | Change Station
CLOSE
Current Station
Personal Weather Station
Location: Boulder, CO
Elevation: 5210 ft
Nearby Weather Stations

Elev 5210 ft 40.07 °N, 105.19 °W | Updated 33 seconds ago

Clear
Clear
35.1 °F
Feels Like 35 °F
N
0.0
Wind Variable Wind from East
Gusts 2.0 mph

Today
High -- | Low -- °F
--% Chance of Precip.
Yesterday
High -- | Low -- °F
Precip. -- in
Pressure 30.26 in
Visibility 10.0 miles
Clouds Clear
Windchill 35 °F
Dew Point 30 °F
Humidity 83%
Rainfall 0.00 in
Snow Depth Not available.
6:57 AM 5:32 PM
Waxing Crescent, 26% visible
METAR KBDU 130317Z AUTO 00000KT 10SM CLR 02/M01 A3026 RMK AO2
Pressure 30.26 in
Visibility 10.0 miles
Clouds Clear
Windchill 35 °F
Dew Point 30 °F
Humidity 83%
Rainfall 0.00 in
Snow Depth Not available.
6:57 AM 5:32 PM
Waxing Crescent, 26% visible
METAR KBDU 130317Z AUTO 00000KT 10SM CLR 02/M01 A3026 RMK AO2

10-Day Weather Forecast

Almanac

Astronomy

Feb. 12, 2016 Rise Set
Actual Time
Civil Twilight
Nautical Twilight
Astronomical Twilight
Moon
Length of Visible Light
Length of Day
Tomorrow will be .
, % of the Moon is Illuminated

Today's Extremes

State Highs State Lows

Community

WunderPhotos

Upload Photos

1,892,491 photos uploaded!

WunderBlog® & News

Nearby

Air Quality

  Air Quality AQ Index Pollutant
Not available.

Snow Depth

Station Depth Elevation

Earthquake Activity

City Distance Mag. Time & Date
Minimum magnitude displayed is 2.5.

Coastal Water Temperatures

Place Temperature

Stations

Nearby Weather Stations

Station Location Temp. Windchill Dew Point Humidity Wind Precip. Elev Updated Type
                   

Watches & Warnings

There are currently no watches in effect.